Main page
METAR-TAF:

Airports :

Singapore, Singapore

Paya Lebar Air Base

latitude: 01-22N, longitude: 103-55E, elevation: 18 m

Current weather observation

The report was made 24 minutes ago, at 01:00 UTC
Wind 3 kt from the North
Temperature 28°C
Humidity 84%
Pressure 1010 hPa
Visibility: 7000 m
Few clouds at a height of 1800 ft
Broken clouds at a height of 30000 ft

METAR: WSAP 300100Z 36003KT 7000 FEW018 BKN300 28/25 Q1010

Time: 09:24 (01:24 UTC)

Forecast

The report was made 2 hours and 24 minutes ago, at 23:00 UTC
Forecast valid from 30 at 00 UTC to 01 at 06 UTC
Wind 7 kt from the East/Northeast
Visibility 10 km or more
Few clouds at a height of 1800 ft, Cumulonimbus.
Scattered clouds at a height of 2000 ft
Temporary
from 30 at 06 UTC to 30 at 09 UTC
Visibility: 3000 m
Few clouds at a height of 1200 ft, Cumulonimbus.
Broken clouds at a height of 1500 ft
thunderstorm, rain

TAF: WSAP 292300Z 3000/0106 07007KT 9999 FEW018CB SCT020 TEMPO 3006/3009 3000 TSRA FEW012CB BKN015

METAR-TAF

Weather observations and forecasts of more than 4000 airports (METAR and TAF reports).

The available stations are represented by yellow and red dots on the map.

Hover mouse over dot to see the name of the station.

Then click to see weather observations and forecasts.

To change the map : click on the green buttons with a black cross to zoom in, on the green button with a dash to zoom out, or on the green arrows for adjacent maps.


METAR-TAF: